createdAt,value
2022-10-19T00:00:24.251Z,49.08
2022-10-19T00:01:24.255Z,51.13
2022-10-19T00:02:24.328Z,49.21
2022-10-19T00:03:24.232Z,49.84
2022-10-19T00:04:24.223Z,48.31
2022-10-19T00:05:24.218Z,50.86
2022-10-19T00:06:24.234Z,53.13
2022-10-19T00:07:24.195Z,48.80
2022-10-19T00:08:24.203Z,48.84
2022-10-19T00:09:24.186Z,49.67
2022-10-19T00:10:24.175Z,50.94
2022-10-19T00:11:24.194Z,49.90
2022-10-19T00:12:24.179Z,50.33
2022-10-19T00:13:24.160Z,50.87
2022-10-19T00:14:24.153Z,50.63
2022-10-19T00:15:24.144Z,51.25
2022-10-19T00:16:24.139Z,50.53
2022-10-19T00:17:24.156Z,51.23
2022-10-19T00:18:24.159Z,52.37
2022-10-19T00:19:24.126Z,49.73
2022-10-19T00:20:24.125Z,46.69
2022-10-19T00:21:24.109Z,49.07
2022-10-19T00:22:24.107Z,49.00
2022-10-19T00:23:24.085Z,50.66
2022-10-19T00:24:24.104Z,50.98
2022-10-19T00:25:24.067Z,50.36
2022-10-19T00:26:24.070Z,47.98
2022-10-19T00:27:24.072Z,50.19
2022-10-19T00:28:24.062Z,49.89
2022-10-19T00:29:24.043Z,47.09
2022-10-19T00:30:24.043Z,49.13
2022-10-19T00:31:24.036Z,48.19
2022-10-19T00:32:24.028Z,49.84
2022-10-19T00:33:24.039Z,47.68
2022-10-19T00:34:24.015Z,49.53
2022-10-19T00:35:24.002Z,49.48
2022-10-19T00:36:24.007Z,50.01
2022-10-19T00:37:23.999Z,50.17
2022-10-19T00:38:23.991Z,46.87
2022-10-19T00:39:23.995Z,47.36
2022-10-19T00:40:23.977Z,48.29
2022-10-19T00:41:23.959Z,53.17
2022-10-19T00:42:23.960Z,50.15
2022-10-19T00:43:23.951Z,48.85
2022-10-19T00:44:23.968Z,51.15
2022-10-19T00:45:23.940Z,48.79
2022-10-19T00:46:23.937Z,52.64
2022-10-19T00:47:23.920Z,48.37
2022-10-19T00:48:23.926Z,49.77
2022-10-19T00:49:23.923Z,53.88
2022-10-19T00:50:23.903Z,50.00
2022-10-19T00:51:23.900Z,47.41
2022-10-19T00:52:23.892Z,49.03
2022-10-19T00:53:23.887Z,53.47
2022-10-19T00:54:23.878Z,52.74
2022-10-19T00:55:23.879Z,49.64
2022-10-19T00:56:23.872Z,50.71
2022-10-19T00:57:23.876Z,49.71
2022-10-19T00:58:23.859Z,47.73
2022-10-19T00:59:23.849Z,46.94
2022-10-19T01:00:23.853Z,48.28
2022-10-19T01:01:23.907Z,52.58
2022-10-19T01:02:23.843Z,51.10
2022-10-19T01:03:23.819Z,50.53
2022-10-19T01:04:23.806Z,50.99
2022-10-19T01:05:23.804Z,48.53
2022-10-19T01:06:23.810Z,48.37
2022-10-19T01:07:23.791Z,52.61
2022-10-19T01:08:23.791Z,52.49
2022-10-19T01:09:23.751Z,50.43
2022-10-19T01:10:23.767Z,49.28
2022-10-19T01:11:23.775Z,50.79
2022-10-19T01:12:23.776Z,48.36
2022-10-19T01:13:23.750Z,50.31
2022-10-19T01:14:23.739Z,55.13
2022-10-19T01:15:23.719Z,52.60
2022-10-19T01:16:23.729Z,49.61
2022-10-19T01:17:23.728Z,50.58
2022-10-19T01:18:23.712Z,50.92
2022-10-19T01:19:23.699Z,52.88
2022-10-19T01:20:23.696Z,47.70
2022-10-19T01:21:23.683Z,50.00
2022-10-19T01:22:23.702Z,53.15
2022-10-19T01:23:23.684Z,50.20
2022-10-19T01:24:23.677Z,53.72
2022-10-19T01:25:23.659Z,52.58
2022-10-19T01:26:23.659Z,47.92
2022-10-19T01:27:23.659Z,49.25
2022-10-19T01:28:23.631Z,50.04
2022-10-19T01:29:23.663Z,48.14
2022-10-19T01:30:23.639Z,50.74
2022-10-19T01:31:23.615Z,49.30
2022-10-19T01:32:23.615Z,51.24
2022-10-19T01:33:23.615Z,51.11
2022-10-19T01:34:23.615Z,51.24
2022-10-19T01:35:23.612Z,53.44
2022-10-19T01:36:23.594Z,51.64
2022-10-19T01:37:23.579Z,52.39
2022-10-19T01:38:23.594Z,49.24
2022-10-19T01:39:23.566Z,49.56
2022-10-19T01:40:23.555Z,54.05
2022-10-19T01:41:23.546Z,51.36
2022-10-19T01:42:23.543Z,52.17
2022-10-19T01:43:23.554Z,50.27
2022-10-19T01:44:23.531Z,50.61
2022-10-19T01:45:23.530Z,55.06
2022-10-19T01:46:23.522Z,51.22
2022-10-19T01:47:23.518Z,51.11
2022-10-19T01:48:23.507Z,49.40
2022-10-19T01:49:23.500Z,50.98
2022-10-19T01:50:23.490Z,51.07
2022-10-19T01:51:23.511Z,47.95
2022-10-19T01:52:23.479Z,47.68
2022-10-19T01:53:23.479Z,49.96
2022-10-19T01:54:23.476Z,50.47
2022-10-19T01:55:23.476Z,50.25
2022-10-19T01:56:23.438Z,47.90
2022-10-19T01:57:23.461Z,54.50
2022-10-19T01:58:23.461Z,50.62
2022-10-19T01:59:23.438Z,52.10
2022-10-19T02:00:23.434Z,50.26
2022-10-19T02:01:23.425Z,50.24
2022-10-19T02:02:23.434Z,48.60
2022-10-19T02:03:23.414Z,49.86
2022-10-19T02:04:23.393Z,51.81
2022-10-19T02:05:23.464Z,51.36
2022-10-19T02:06:23.395Z,48.47
2022-10-19T02:07:23.430Z,47.19
2022-10-19T02:08:23.370Z,51.02
2022-10-19T02:09:23.387Z,49.26
2022-10-19T02:10:23.367Z,48.40
2022-10-19T02:11:23.364Z,46.87
2022-10-19T02:12:23.348Z,50.72
2022-10-19T02:13:23.343Z,49.62
2022-10-19T02:14:23.339Z,47.29
2022-10-19T02:15:23.388Z,50.94
2022-10-19T02:16:23.318Z,49.81
2022-10-19T02:17:23.316Z,51.86
2022-10-19T02:18:23.294Z,52.60
2022-10-19T02:20:23.335Z,53.12
2022-10-19T02:21:23.274Z,55.58
2022-10-19T02:22:23.281Z,52.72
2022-10-19T02:23:23.264Z,51.29
2022-10-19T02:24:23.289Z,51.21
2022-10-19T02:25:23.258Z,48.84
2022-10-19T02:26:23.250Z,49.05
2022-10-19T02:27:23.262Z,52.69
2022-10-19T02:28:23.231Z,49.97
2022-10-19T02:29:23.258Z,48.11
2022-10-19T02:30:23.246Z,50.50
2022-10-19T02:31:23.224Z,51.61
2022-10-19T02:32:23.214Z,51.63
2022-10-19T02:33:23.203Z,51.03
2022-10-19T02:34:23.206Z,50.34
2022-10-19T02:35:23.202Z,49.09
2022-10-19T02:36:23.178Z,50.45
2022-10-19T02:37:25.488Z,50.26
2022-10-19T02:38:23.163Z,52.68
2022-10-19T02:39:24.194Z,48.94
2022-10-19T02:40:23.170Z,49.91
2022-10-19T02:41:23.167Z,52.71
2022-10-19T02:42:23.144Z,49.38
2022-10-19T02:43:23.134Z,53.68
2022-10-19T02:44:23.121Z,49.89
2022-10-19T02:45:23.158Z,51.07
2022-10-19T02:46:23.118Z,50.10
2022-10-19T02:47:23.106Z,51.08
2022-10-19T02:48:23.098Z,51.06
2022-10-19T02:49:23.094Z,52.22
2022-10-19T02:50:23.107Z,49.99
2022-10-19T02:51:23.099Z,51.68
2022-10-19T02:52:23.066Z,50.96
2022-10-19T02:53:23.053Z,52.61
2022-10-19T02:54:23.054Z,54.16
2022-10-19T02:55:23.086Z,51.77
2022-10-19T02:56:23.038Z,54.15
2022-10-19T02:57:23.036Z,52.59
2022-10-19T02:58:23.058Z,50.55
2022-10-19T02:59:23.025Z,50.90
2022-10-19T03:00:23.014Z,51.47
2022-10-19T03:01:23.008Z,53.26
2022-10-19T03:02:23.016Z,50.76
2022-10-19T03:03:22.997Z,48.93
2022-10-19T03:04:22.981Z,52.29
2022-10-19T03:05:22.990Z,50.50
2022-10-19T03:06:22.966Z,50.11
2022-10-19T03:07:22.971Z,50.35
2022-10-19T03:08:22.955Z,50.29
2022-10-19T03:09:22.969Z,51.16
2022-10-19T03:10:22.948Z,49.40
2022-10-19T03:11:22.938Z,54.09
2022-10-19T03:12:22.935Z,53.35
2022-10-19T03:13:22.933Z,53.42
2022-10-19T03:14:22.915Z,53.09
2022-10-19T03:15:22.921Z,53.14
2022-10-19T03:16:22.905Z,54.20
2022-10-19T03:17:22.896Z,55.46
2022-10-19T03:18:22.894Z,53.36
2022-10-19T03:19:22.885Z,53.22
2022-10-19T03:20:22.889Z,54.24
2022-10-19T03:21:22.877Z,54.11
2022-10-19T03:22:22.862Z,54.12
2022-10-19T03:23:22.849Z,54.36
2022-10-19T03:24:22.855Z,54.37
2022-10-19T03:25:22.853Z,55.01
2022-10-19T03:26:22.839Z,54.21
2022-10-19T03:27:22.838Z,54.83
2022-10-19T03:28:22.820Z,54.47
2022-10-19T03:29:22.822Z,55.45
2022-10-19T03:30:22.820Z,55.26
2022-10-19T03:31:23.817Z,54.90
2022-10-19T03:32:22.793Z,55.58
2022-10-19T03:33:22.903Z,54.91
2022-10-19T03:34:22.786Z,56.27
2022-10-19T03:35:22.773Z,55.63
2022-10-19T03:36:22.779Z,56.99
2022-10-19T03:37:22.774Z,55.62
2022-10-19T03:38:22.758Z,51.90
2022-10-19T03:39:22.753Z,56.98
2022-10-19T03:40:22.758Z,56.52
2022-10-19T03:41:22.822Z,54.56
2022-10-19T03:42:22.745Z,55.62
2022-10-19T03:43:22.705Z,55.99
2022-10-19T03:44:22.703Z,55.59
2022-10-19T03:45:22.707Z,53.03
2022-10-19T03:46:22.734Z,54.73
2022-10-19T03:47:22.705Z,56.88
2022-10-19T03:48:22.679Z,56.39
2022-10-19T03:49:22.682Z,56.24
2022-10-19T03:50:22.674Z,56.62
2022-10-19T03:51:22.665Z,56.68
2022-10-19T03:52:22.673Z,56.95
2022-10-19T03:53:22.650Z,56.32
2022-10-19T03:54:25.077Z,56.36
2022-10-19T03:55:22.646Z,57.54
2022-10-19T03:56:22.630Z,55.59
2022-10-19T03:57:22.624Z,56.11
2022-10-19T03:58:22.638Z,57.28
2022-10-19T03:59:22.614Z,55.23
2022-10-19T04:00:22.602Z,55.52
2022-10-19T04:01:22.698Z,53.89
2022-10-19T04:02:22.593Z,58.05
2022-10-19T04:03:22.661Z,53.72
2022-10-19T04:04:22.593Z,54.79
2022-10-19T04:05:22.602Z,54.41
2022-10-19T04:06:22.558Z,56.01
2022-10-19T04:07:22.549Z,54.71
2022-10-19T04:08:22.589Z,55.76
2022-10-19T04:09:22.541Z,56.68
2022-10-19T04:10:22.547Z,56.87
2022-10-19T04:11:22.535Z,57.75
2022-10-19T04:12:22.525Z,57.47
2022-10-19T04:13:22.530Z,57.80
2022-10-19T04:14:31.872Z,56.74
2022-10-19T04:15:24.498Z,56.75
2022-10-19T04:16:22.497Z,56.69
2022-10-19T04:17:22.494Z,55.35
2022-10-19T04:18:22.481Z,57.39
2022-10-19T04:19:22.494Z,55.33
2022-10-19T04:20:22.482Z,55.09
2022-10-19T04:21:22.463Z,56.53
2022-10-19T04:22:22.445Z,55.77
2022-10-19T04:23:22.460Z,56.61
2022-10-19T04:24:22.445Z,56.30
2022-10-19T04:25:22.437Z,57.42
2022-10-19T04:26:22.435Z,54.93
2022-10-19T04:27:22.413Z,56.47
2022-10-19T04:28:22.418Z,56.72
2022-10-19T04:29:24.974Z,55.19
2022-10-19T04:30:23.393Z,56.11
2022-10-19T04:31:22.382Z,57.04
2022-10-19T04:32:22.385Z,55.96
2022-10-19T04:33:22.378Z,55.30
2022-10-19T04:34:22.395Z,57.40
2022-10-19T04:35:22.361Z,56.78
2022-10-19T04:36:22.355Z,57.79
2022-10-19T04:37:22.351Z,56.99
2022-10-19T04:38:22.346Z,58.68
2022-10-19T04:39:22.365Z,57.99
2022-10-19T04:40:22.325Z,57.37
2022-10-19T04:41:22.325Z,57.56
2022-10-19T04:42:22.318Z,58.30
2022-10-19T04:43:22.310Z,57.03
2022-10-19T04:45:22.290Z,58.05
2022-10-19T04:46:22.286Z,58.37
2022-10-19T04:47:22.277Z,57.33
2022-10-19T04:48:22.298Z,56.61
2022-10-19T04:49:22.269Z,59.35
2022-10-19T04:50:22.252Z,58.02
2022-10-19T04:51:22.253Z,57.82
2022-10-19T04:52:22.269Z,56.42
2022-10-19T04:53:22.240Z,57.81
2022-10-19T04:54:22.240Z,58.20
2022-10-19T04:55:22.240Z,57.33
2022-10-19T04:56:22.213Z,57.14
2022-10-19T04:57:22.213Z,58.27
2022-10-19T04:58:22.204Z,58.23
2022-10-19T04:59:22.199Z,57.29
2022-10-19T05:00:22.184Z,58.25
2022-10-19T05:01:22.232Z,57.54
2022-10-19T05:02:22.162Z,57.49
2022-10-19T05:03:22.212Z,56.38
2022-10-19T05:04:22.317Z,56.72
2022-10-19T05:05:22.156Z,56.85
2022-10-19T05:06:22.151Z,59.39
2022-10-19T05:07:22.141Z,58.10
2022-10-19T05:08:22.130Z,57.84
2022-10-19T05:09:22.142Z,57.04
2022-10-19T05:10:22.228Z,58.94
2022-10-19T05:11:22.111Z,57.44
2022-10-19T05:12:22.111Z,56.87
2022-10-19T05:13:22.103Z,57.68
2022-10-19T05:14:22.135Z,57.00
2022-10-19T05:15:22.096Z,57.20
2022-10-19T05:16:22.078Z,57.67
2022-10-19T05:17:22.070Z,57.31
2022-10-19T05:18:22.054Z,57.27
2022-10-19T05:19:22.063Z,57.90
2022-10-19T05:20:22.060Z,58.45
2022-10-19T05:21:22.050Z,60.22
2022-10-19T05:22:22.043Z,56.97
2022-10-19T05:23:22.051Z,57.94
2022-10-19T05:24:22.018Z,58.45
2022-10-19T05:25:22.015Z,56.75
2022-10-19T05:26:22.002Z,58.43
2022-10-19T05:27:22.011Z,58.35
2022-10-19T05:28:21.991Z,58.29
2022-10-19T05:29:21.979Z,57.99
2022-10-19T05:30:22.007Z,57.73
2022-10-19T05:31:21.982Z,58.12
2022-10-19T05:32:21.971Z,57.68
2022-10-19T05:33:21.954Z,56.40
2022-10-19T05:34:21.955Z,58.14
2022-10-19T05:35:22.689Z,59.05
2022-10-19T05:36:21.999Z,60.67
2022-10-19T05:37:21.932Z,60.03
2022-10-19T05:38:21.927Z,57.64
2022-10-19T05:39:21.917Z,58.17
2022-10-19T05:40:21.915Z,57.21
2022-10-19T05:41:21.902Z,56.61
2022-10-19T05:42:21.902Z,57.77
2022-10-19T05:43:21.902Z,58.07
2022-10-19T05:44:21.886Z,58.42
2022-10-19T05:45:21.872Z,59.10
2022-10-19T05:46:21.902Z,59.06
2022-10-19T05:47:21.870Z,58.44
2022-10-19T05:48:21.863Z,58.59
2022-10-19T05:49:21.861Z,59.04
2022-10-19T05:50:21.829Z,56.85
2022-10-19T05:51:21.844Z,57.97
2022-10-19T05:52:21.846Z,59.47
2022-10-19T05:53:21.818Z,59.74
2022-10-19T05:54:23.806Z,59.05
2022-10-19T05:55:21.805Z,58.95
2022-10-19T05:56:21.799Z,58.52
2022-10-19T05:57:21.786Z,57.89
2022-10-19T05:58:21.798Z,58.57
2022-10-19T05:59:21.782Z,58.46
2022-10-19T06:00:21.767Z,55.41
2022-10-19T06:01:21.754Z,59.63
2022-10-19T06:02:21.755Z,58.30
2022-10-19T06:03:21.806Z,56.53
2022-10-19T06:04:21.739Z,57.45
2022-10-19T06:05:21.735Z,58.01
2022-10-19T06:06:21.731Z,57.94
2022-10-19T06:07:21.720Z,57.31
2022-10-19T06:08:21.742Z,58.26
2022-10-19T06:09:21.711Z,57.44
2022-10-19T06:10:21.710Z,56.66
2022-10-19T06:11:21.694Z,55.41
2022-10-19T06:12:24.960Z,57.46
2022-10-19T06:13:22.733Z,58.70
2022-10-19T06:14:21.800Z,57.93
2022-10-19T06:15:21.662Z,57.32
2022-10-19T06:16:21.660Z,57.97
2022-10-19T06:17:21.653Z,60.03
2022-10-19T06:18:21.638Z,59.53
2022-10-19T06:19:21.643Z,58.18
2022-10-19T06:20:21.638Z,57.88
2022-10-19T06:21:21.622Z,58.54
2022-10-19T06:22:21.620Z,58.56
2022-10-19T06:23:21.602Z,57.63
2022-10-19T06:24:21.614Z,55.61
2022-10-19T06:25:21.590Z,56.00
2022-10-19T06:26:21.578Z,60.16
2022-10-19T06:27:21.632Z,66.93
2022-10-19T06:28:21.574Z,66.25
2022-10-19T06:29:21.577Z,57.24
2022-10-19T06:30:21.649Z,58.86
2022-10-19T06:31:21.550Z,58.48
2022-10-19T06:32:21.534Z,58.29
2022-10-19T06:33:21.532Z,58.21
2022-10-19T06:34:21.619Z,58.57
2022-10-19T06:35:21.545Z,59.11
2022-10-19T06:36:21.514Z,57.97
2022-10-19T06:37:21.505Z,58.08
2022-10-19T06:38:21.493Z,57.93
2022-10-19T06:39:21.494Z,58.83
2022-10-19T06:40:21.531Z,57.07
2022-10-19T06:41:21.477Z,58.71
2022-10-19T06:42:21.473Z,59.51
2022-10-19T06:43:21.461Z,67.27
2022-10-19T06:44:21.456Z,76.87
2022-10-19T06:45:21.470Z,67.84
2022-10-19T06:46:21.437Z,62.48
2022-10-19T06:47:21.430Z,71.35
2022-10-19T06:48:21.438Z,65.86
2022-10-19T06:49:21.415Z,57.41
2022-10-19T06:50:21.417Z,58.60
2022-10-19T06:51:21.405Z,57.66
2022-10-19T06:52:21.394Z,58.45
2022-10-19T06:53:21.391Z,58.63
2022-10-19T06:54:21.389Z,59.45
2022-10-19T06:55:21.414Z,58.81
2022-10-19T06:56:21.405Z,58.35
2022-10-19T06:57:21.540Z,57.12
2022-10-19T06:58:21.353Z,57.00
2022-10-19T06:59:21.395Z,58.17
2022-10-19T07:00:21.349Z,56.95
2022-10-19T07:01:21.407Z,59.14
2022-10-19T07:02:21.325Z,58.64
2022-10-19T07:03:21.362Z,56.44
2022-10-19T07:04:21.305Z,55.76
2022-10-19T07:05:21.302Z,59.54
2022-10-19T07:06:21.317Z,56.88
2022-10-19T07:07:21.286Z,56.81
2022-10-19T07:08:21.289Z,55.74
2022-10-19T07:09:21.262Z,56.65
2022-10-19T07:10:21.290Z,55.94
2022-10-19T07:11:21.262Z,56.64
2022-10-19T07:12:21.258Z,56.73
2022-10-19T07:13:21.291Z,59.08
2022-10-19T07:14:21.241Z,57.94
2022-10-19T07:15:21.230Z,58.05
2022-10-19T07:16:21.737Z,60.37
2022-10-19T07:17:21.213Z,58.87
2022-10-19T07:18:21.230Z,58.24
2022-10-19T07:19:21.201Z,57.70
2022-10-19T07:20:21.190Z,56.87
2022-10-19T07:21:21.181Z,58.77
2022-10-19T07:22:25.770Z,58.11
2022-10-19T07:23:23.184Z,57.47
2022-10-19T07:24:21.165Z,58.30
2022-10-19T07:25:21.157Z,58.88
2022-10-19T07:26:21.155Z,58.01
2022-10-19T07:27:21.175Z,58.50
2022-10-19T07:28:21.150Z,58.37
2022-10-19T07:29:21.123Z,57.36
2022-10-19T07:30:21.126Z,57.99
2022-10-19T07:31:21.122Z,56.82
2022-10-19T07:32:21.118Z,57.98
2022-10-19T07:33:21.101Z,59.98
2022-10-19T07:34:24.164Z,60.04
2022-10-19T07:35:22.094Z,57.83
2022-10-19T07:36:21.084Z,57.49
2022-10-19T07:37:21.080Z,57.98
2022-10-19T07:38:21.101Z,55.52
2022-10-19T07:39:21.069Z,55.77
2022-10-19T07:40:21.074Z,56.11
2022-10-19T07:41:21.058Z,57.84
2022-10-19T07:43:21.033Z,55.64
2022-10-19T07:44:21.022Z,57.58
2022-10-19T07:45:21.028Z,57.89
2022-10-19T07:46:21.024Z,59.01
2022-10-19T07:47:21.017Z,58.79
2022-10-19T07:48:20.998Z,56.07
2022-10-19T07:49:21.048Z,58.10
2022-10-19T07:50:21.019Z,57.10
2022-10-19T07:51:21.049Z,57.00
2022-10-19T07:52:20.973Z,56.95
2022-10-19T07:53:20.972Z,57.01
2022-10-19T07:54:20.960Z,57.34
2022-10-19T07:55:20.964Z,55.06
2022-10-19T07:56:20.965Z,55.64
2022-10-19T07:57:20.940Z,57.19
2022-10-19T07:58:20.941Z,56.05
2022-10-19T07:59:20.929Z,55.83
2022-10-19T08:00:20.961Z,54.88
2022-10-19T08:01:20.933Z,55.48
2022-10-19T08:02:20.995Z,56.26
2022-10-19T08:05:22.926Z,55.16
2022-10-19T08:06:20.929Z,55.56
2022-10-19T08:07:20.893Z,54.30
2022-10-19T08:08:20.874Z,56.39
2022-10-19T08:09:50.924Z,55.22
2022-10-19T08:10:22.872Z,56.59
2022-10-19T08:11:20.858Z,55.15
2022-10-19T08:12:20.849Z,56.28
2022-10-19T08:13:20.876Z,55.37
2022-10-19T08:14:20.838Z,55.74
2022-10-19T08:15:20.830Z,55.62
2022-10-19T08:16:20.828Z,54.80
2022-10-19T08:17:20.885Z,58.06
2022-10-19T08:18:20.815Z,58.15
2022-10-19T08:19:20.805Z,55.67
2022-10-19T08:20:20.802Z,56.30
2022-10-19T08:21:20.813Z,55.82
2022-10-19T08:22:20.797Z,55.29
2022-10-19T08:23:20.802Z,57.47
2022-10-19T08:24:20.777Z,57.78
2022-10-19T08:25:20.768Z,57.30
2022-10-19T08:26:20.760Z,58.24
2022-10-19T08:27:20.753Z,57.49
2022-10-19T08:28:20.757Z,57.81
2022-10-19T08:29:20.781Z,56.70
2022-10-19T08:30:20.797Z,56.97
2022-10-19T08:31:20.729Z,54.51
2022-10-19T08:32:20.722Z,58.42
2022-10-19T08:33:20.721Z,54.34
2022-10-19T08:34:20.736Z,56.60
2022-10-19T08:35:20.700Z,56.49
2022-10-19T08:36:20.702Z,56.16
2022-10-19T08:37:40.090Z,57.68
2022-10-19T08:38:21.679Z,57.61
2022-10-19T08:39:20.680Z,59.00
2022-10-19T08:40:20.720Z,58.56
2022-10-19T08:41:20.652Z,55.99
2022-10-19T08:42:20.645Z,56.52
2022-10-19T08:43:20.653Z,56.88
2022-10-19T08:44:20.649Z,56.87
2022-10-19T08:45:20.655Z,56.76
2022-10-19T08:46:20.621Z,55.30
2022-10-19T08:47:33.238Z,55.37
2022-10-19T08:48:22.608Z,55.60
2022-10-19T08:49:20.599Z,55.58
2022-10-19T08:50:20.636Z,56.65
2022-10-19T08:51:20.589Z,55.38
2022-10-19T08:52:20.590Z,61.56
2022-10-19T08:53:20.568Z,57.31
2022-10-19T08:54:20.556Z,56.14
2022-10-19T08:55:20.762Z,56.08
2022-10-19T08:56:38.787Z,56.54
2022-10-19T08:57:22.564Z,56.56
2022-10-19T08:58:20.564Z,58.28
2022-10-19T08:59:20.527Z,56.55
2022-10-19T09:00:20.552Z,56.11
2022-10-19T09:01:20.528Z,53.90
2022-10-19T09:02:20.519Z,56.07
2022-10-19T09:03:32.088Z,56.37
2022-10-19T09:04:21.501Z,58.04
2022-10-19T09:05:20.485Z,58.21
2022-10-19T09:06:20.499Z,58.30
2022-10-19T09:07:20.488Z,57.57
2022-10-19T09:08:20.468Z,57.65
2022-10-19T09:09:20.452Z,57.07
2022-10-19T09:10:20.556Z,57.26
2022-10-19T09:11:20.448Z,59.08
2022-10-19T09:12:20.442Z,56.98
2022-10-19T09:13:20.451Z,57.07
2022-10-19T09:14:20.445Z,56.23
2022-10-19T09:15:20.442Z,57.06
2022-10-19T09:16:20.416Z,59.91
2022-10-19T09:17:20.410Z,58.98
2022-10-19T09:18:20.400Z,57.64
2022-10-19T09:19:20.401Z,55.59
2022-10-19T09:20:20.388Z,55.16
2022-10-19T09:21:20.382Z,57.14
2022-10-19T09:22:20.372Z,58.67
2022-10-19T09:23:20.372Z,59.28
2022-10-19T09:24:20.372Z,58.51
2022-10-19T09:25:20.356Z,59.79
2022-10-19T09:26:20.348Z,59.31
2022-10-19T09:27:20.345Z,58.02
2022-10-19T09:28:20.328Z,58.76
2022-10-19T09:29:20.372Z,57.89
2022-10-19T09:30:20.339Z,57.12
2022-10-19T09:31:20.328Z,57.23
2022-10-19T09:32:20.304Z,59.53
2022-10-19T09:33:20.300Z,61.19
2022-10-19T09:34:20.304Z,58.88
2022-10-19T09:35:20.304Z,57.80
2022-10-19T09:36:23.051Z,57.76
2022-10-19T09:37:25.970Z,58.32
2022-10-19T09:38:22.272Z,58.28
2022-10-19T09:39:20.260Z,57.71
2022-10-19T09:40:20.268Z,57.80
2022-10-19T09:41:20.252Z,57.52
2022-10-19T09:42:20.245Z,57.34
2022-10-19T09:43:20.250Z,57.31
2022-10-19T09:44:20.227Z,58.34
2022-10-19T09:45:20.243Z,57.01
2022-10-19T09:46:20.604Z,57.45
2022-10-19T09:47:21.216Z,55.47
2022-10-19T09:48:20.204Z,56.20
2022-10-19T09:49:20.201Z,57.39
2022-10-19T09:50:20.231Z,57.86
2022-10-19T09:51:20.183Z,60.17
2022-10-19T09:52:20.183Z,59.48
2022-10-19T09:53:20.177Z,59.13
2022-10-19T09:54:20.177Z,59.47
2022-10-19T09:55:20.160Z,59.80
2022-10-19T09:56:20.169Z,59.23
2022-10-19T09:57:20.161Z,58.88
2022-10-19T09:58:21.147Z,58.43
2022-10-19T09:59:20.139Z,57.90
2022-10-19T10:00:20.136Z,58.34
2022-10-19T10:01:20.147Z,58.39
2022-10-19T10:02:20.128Z,59.34
2022-10-19T10:03:20.122Z,59.75
2022-10-19T10:04:20.116Z,60.14
2022-10-19T10:05:20.104Z,58.32
2022-10-19T10:06:20.133Z,56.72
2022-10-19T10:07:20.089Z,56.54
2022-10-19T10:08:20.084Z,56.69
2022-10-19T10:09:20.067Z,56.79
2022-10-19T10:10:20.079Z,55.77
2022-10-19T10:11:20.077Z,55.57
2022-10-19T10:12:20.052Z,56.09
2022-10-19T10:13:20.054Z,55.45
2022-10-19T10:14:20.035Z,56.05
2022-10-19T10:15:20.039Z,55.63
2022-10-19T10:16:20.049Z,53.80
2022-10-19T10:17:20.018Z,54.46
2022-10-19T10:18:20.017Z,53.53
2022-10-19T10:19:23.108Z,54.70
2022-10-19T10:20:20.000Z,53.88
2022-10-19T10:21:25.179Z,55.03
2022-10-19T10:22:22.001Z,52.79
2022-10-19T10:23:19.980Z,52.81
2022-10-19T10:24:19.963Z,55.16
2022-10-19T10:25:19.967Z,53.62
2022-10-19T10:26:19.983Z,53.65
2022-10-19T10:27:19.947Z,52.45
2022-10-19T10:28:19.947Z,52.14
2022-10-19T10:29:19.936Z,52.37
2022-10-19T10:30:19.931Z,53.62
2022-10-19T10:31:19.952Z,50.85
2022-10-19T10:32:19.934Z,50.25
2022-10-19T10:33:27.279Z,51.31
2022-10-19T10:34:28.514Z,52.87
2022-10-19T10:35:21.907Z,52.73
2022-10-19T10:36:19.904Z,55.70
2022-10-19T10:37:19.940Z,50.67
2022-10-19T10:38:19.876Z,51.69
2022-10-19T10:39:19.876Z,49.29
2022-10-19T10:40:23.286Z,51.81
2022-10-19T10:41:20.868Z,51.80
2022-10-19T10:42:19.847Z,50.70
2022-10-19T10:43:19.867Z,50.00
2022-10-19T10:44:19.840Z,50.65
2022-10-19T10:45:19.831Z,51.69
2022-10-19T10:46:19.819Z,51.85
2022-10-19T10:47:19.815Z,49.25
2022-10-19T10:48:19.832Z,54.34
2022-10-19T10:49:19.796Z,52.00
2022-10-19T10:50:19.796Z,52.04
2022-10-19T10:51:19.794Z,50.50
2022-10-19T10:52:19.795Z,52.55
2022-10-19T10:53:19.775Z,51.68
2022-10-19T10:54:19.770Z,51.73
2022-10-19T10:55:19.773Z,51.17
2022-10-19T10:56:19.764Z,50.06
2022-10-19T10:57:19.824Z,50.39
2022-10-19T10:58:19.743Z,49.88
2022-10-19T10:59:19.744Z,51.86
2022-10-19T11:00:19.773Z,49.88
2022-10-19T11:01:19.758Z,47.88
2022-10-19T11:02:19.760Z,51.14
2022-10-19T11:03:19.747Z,49.47
2022-10-19T11:04:19.711Z,51.66
2022-10-19T11:05:19.711Z,53.51
2022-10-19T11:06:19.744Z,52.45
2022-10-19T11:07:19.713Z,52.64
2022-10-19T11:08:19.700Z,52.12
2022-10-19T11:09:20.682Z,52.56
2022-10-19T11:10:19.683Z,51.52
2022-10-19T11:11:19.667Z,50.50
2022-10-19T11:12:19.671Z,51.44
2022-10-19T11:13:19.647Z,54.68
2022-10-19T11:14:19.663Z,54.72
2022-10-19T11:15:19.715Z,51.93
2022-10-19T11:16:19.644Z,53.36
2022-10-19T11:17:19.637Z,53.80
2022-10-19T11:18:19.625Z,53.25
2022-10-19T11:19:19.654Z,53.62
2022-10-19T11:20:19.628Z,53.29
2022-10-19T11:21:19.620Z,58.59
2022-10-19T11:22:22.427Z,53.08
2022-10-19T11:23:21.596Z,52.12
2022-10-19T11:24:19.685Z,52.91
2022-10-19T11:25:19.619Z,51.48
2022-10-19T11:26:19.582Z,53.41
2022-10-19T11:27:19.564Z,52.47
2022-10-19T11:28:19.560Z,52.03
2022-10-19T11:29:19.552Z,51.91
2022-10-19T11:30:20.191Z,50.25
2022-10-19T11:31:19.626Z,52.22
2022-10-19T11:32:19.530Z,51.28
2022-10-19T11:33:19.560Z,52.21
2022-10-19T11:34:23.620Z,51.59
2022-10-19T11:35:20.526Z,51.80
2022-10-19T11:36:19.510Z,49.72
2022-10-19T11:37:19.512Z,52.82
2022-10-19T11:38:22.107Z,53.83
2022-10-19T11:39:20.503Z,51.02
2022-10-19T11:40:22.094Z,53.39
2022-10-19T11:41:20.491Z,53.34
2022-10-19T11:42:19.474Z,52.91
2022-10-19T11:43:20.454Z,52.24
2022-10-19T11:44:20.159Z,50.99
2022-10-19T11:45:19.467Z,53.24
2022-10-19T11:46:19.454Z,54.17
2022-10-19T11:47:19.456Z,54.13
2022-10-19T11:48:19.466Z,51.98
2022-10-19T11:49:19.431Z,52.03
2022-10-19T11:50:19.425Z,51.74
2022-10-19T11:51:21.737Z,48.96
2022-10-19T11:52:21.196Z,49.38
2022-10-19T11:53:19.427Z,50.40
2022-10-19T11:54:19.407Z,50.22
2022-10-19T11:55:19.412Z,52.47
2022-10-19T11:56:19.414Z,50.39
2022-10-19T11:57:19.410Z,50.95
2022-10-19T11:58:19.382Z,50.85
2022-10-19T11:59:19.378Z,49.75
2022-10-19T12:00:39.170Z,50.77
2022-10-19T12:01:21.410Z,48.89
2022-10-19T12:02:19.449Z,49.85
2022-10-19T12:03:19.355Z,52.97
2022-10-19T12:04:19.343Z,51.22
2022-10-19T12:05:19.338Z,51.92
2022-10-19T12:06:19.363Z,49.81
2022-10-19T12:07:19.339Z,51.90
2022-10-19T12:09:21.201Z,48.79
2022-10-19T12:10:19.334Z,49.75
2022-10-19T12:11:19.303Z,49.84
2022-10-19T12:12:20.310Z,49.33
2022-10-19T12:13:19.294Z,49.86
2022-10-19T12:14:19.285Z,50.63
2022-10-19T12:15:19.298Z,50.53
2022-10-19T12:16:19.283Z,49.02
2022-10-19T12:17:19.284Z,49.44
2022-10-19T12:18:19.271Z,50.87
2022-10-19T12:19:19.265Z,50.70
2022-10-19T12:20:19.920Z,49.54
2022-10-19T12:21:19.255Z,52.70
2022-10-19T12:22:19.259Z,49.49
2022-10-19T12:23:19.243Z,50.42
2022-10-19T12:24:19.227Z,49.70
2022-10-19T12:25:19.225Z,53.04
2022-10-19T12:27:20.229Z,50.97
2022-10-19T12:28:19.220Z,50.33
2022-10-19T12:29:20.261Z,51.18
2022-10-19T12:30:19.253Z,51.86
2022-10-19T12:31:19.191Z,56.11
2022-10-19T12:32:19.199Z,54.67
2022-10-19T12:33:19.191Z,51.58
2022-10-19T12:34:19.175Z,50.91
2022-10-19T12:36:19.172Z,50.16
2022-10-19T12:37:19.172Z,48.01
2022-10-19T12:38:19.164Z,48.65
2022-10-19T12:39:19.152Z,52.40
2022-10-19T12:40:19.138Z,52.22
2022-10-19T12:41:19.143Z,52.24
2022-10-19T12:42:19.142Z,50.80
2022-10-19T12:43:20.227Z,50.16
2022-10-19T12:44:19.152Z,48.82
2022-10-19T12:45:19.120Z,50.42
2022-10-19T12:46:19.134Z,52.30
2022-10-19T12:47:19.103Z,54.20
2022-10-19T12:48:19.118Z,53.42
2022-10-19T12:49:19.094Z,50.80
2022-10-19T12:51:19.084Z,50.18
2022-10-19T12:52:19.079Z,55.82
2022-10-19T12:53:19.116Z,60.16
2022-10-19T12:54:19.071Z,53.41
2022-10-19T12:55:19.065Z,53.78
2022-10-19T12:56:19.049Z,53.12
2022-10-19T12:57:22.728Z,53.69
2022-10-19T12:58:20.050Z,53.21
2022-10-19T12:59:19.053Z,51.26
2022-10-19T13:00:19.034Z,52.94
2022-10-19T13:01:19.141Z,52.42